sensor_id;sensor_type;location;lat;lon;timestamp;P1;durP1;ratioP1;P2;durP2;ratioP2
5026;SDS011;2532;52.480;13.354;2023-08-17T04:02:28;6.13;;;4.30;;
5026;SDS011;2532;52.480;13.354;2023-08-17T04:04:55;9.80;;;4.40;;
5026;SDS011;2532;52.480;13.354;2023-08-17T04:07:22;9.50;;;5.50;;
5026;SDS011;2532;52.480;13.354;2023-08-17T04:09:49;11.53;;;5.03;;
5026;SDS011;2532;52.480;13.354;2023-08-17T04:12:16;6.93;;;5.93;;
5026;SDS011;2532;52.480;13.354;2023-08-17T04:14:43;6.90;;;3.60;;
5026;SDS011;2532;52.480;13.354;2023-08-17T04:17:11;8.03;;;4.30;;
5026;SDS011;2532;52.480;13.354;2023-08-17T04:19:39;5.53;;;3.60;;
5026;SDS011;2532;52.480;13.354;2023-08-17T04:22:06;4.67;;;3.73;;
5026;SDS011;2532;52.480;13.354;2023-08-17T04:24:33;6.20;;;3.93;;
5026;SDS011;2532;52.480;13.354;2023-08-17T04:27:00;6.67;;;4.27;;
5026;SDS011;2532;52.480;13.354;2023-08-17T04:29:27;9.37;;;4.70;;
5026;SDS011;2532;52.480;13.354;2023-08-17T04:31:54;6.43;;;4.83;;
5026;SDS011;2532;52.480;13.354;2023-08-17T04:34:21;5.10;;;3.50;;
5026;SDS011;2532;52.480;13.354;2023-08-17T04:36:49;5.53;;;4.37;;
5026;SDS011;2532;52.480;13.354;2023-08-17T04:39:16;5.50;;;3.70;;
5026;SDS011;2532;52.480;13.354;2023-08-17T04:41:43;10.93;;;5.37;;
5026;SDS011;2532;52.480;13.354;2023-08-17T04:44:10;4.90;;;3.73;;
5026;SDS011;2532;52.480;13.354;2023-08-17T04:46:37;5.40;;;4.00;;
5026;SDS011;2532;52.480;13.354;2023-08-17T04:49:03;12.30;;;4.00;;
5026;SDS011;2532;52.480;13.354;2023-08-17T04:51:30;6.90;;;5.10;;
5026;SDS011;2532;52.480;13.354;2023-08-17T04:53:59;6.97;;;4.03;;
5026;SDS011;2532;52.480;13.354;2023-08-17T04:56:26;6.43;;;4.30;;
5026;SDS011;2532;52.480;13.354;2023-08-17T04:58:53;7.87;;;4.10;;
5026;SDS011;2532;52.480;13.354;2023-08-17T05:01:20;6.53;;;3.97;;
5026;SDS011;2532;52.480;13.354;2023-08-17T05:03:47;7.20;;;3.93;;
5026;SDS011;2532;52.480;13.354;2023-08-17T05:06:14;5.47;;;3.40;;
5026;SDS011;2532;52.480;13.354;2023-08-17T05:08:41;12.40;;;3.97;;
5026;SDS011;2532;52.480;13.354;2023-08-17T05:11:09;3.97;;;3.33;;
5026;SDS011;2532;52.480;13.354;2023-08-17T05:13:36;7.70;;;4.20;;
5026;SDS011;2532;52.480;13.354;2023-08-17T05:16:03;4.70;;;3.57;;
5026;SDS011;2532;52.480;13.354;2023-08-17T05:18:30;7.07;;;3.40;;
5026;SDS011;2532;52.480;13.354;2023-08-17T05:20:57;6.10;;;3.73;;
5026;SDS011;2532;52.480;13.354;2023-08-17T05:23:24;7.00;;;3.63;;
5026;SDS011;2532;52.480;13.354;2023-08-17T05:25:50;10.30;;;3.87;;
5026;SDS011;2532;52.480;13.354;2023-08-17T05:28:19;4.17;;;3.50;;
5026;SDS011;2532;52.480;13.354;2023-08-17T05:30:46;7.30;;;3.80;;
5026;SDS011;2532;52.480;13.354;2023-08-17T05:33:12;9.40;;;3.77;;
5026;SDS011;2532;52.480;13.354;2023-08-17T05:35:39;5.13;;;4.00;;
5026;SDS011;2532;52.480;13.354;2023-08-17T05:38:07;4.60;;;3.80;;
5026;SDS011;2532;52.480;13.354;2023-08-17T05:40:34;11.83;;;7.93;;
5026;SDS011;2532;52.480;13.354;2023-08-17T05:43:01;10.13;;;4.70;;
5026;SDS011;2532;52.480;13.354;2023-08-17T05:45:30;9.23;;;4.70;;
5026;SDS011;2532;52.480;13.354;2023-08-17T05:47:57;9.10;;;3.57;;
5026;SDS011;2532;52.480;13.354;2023-08-17T05:50:24;4.50;;;3.20;;
5026;SDS011;2532;52.480;13.354;2023-08-17T05:52:50;9.27;;;3.90;;
5026;SDS011;2532;52.480;13.354;2023-08-17T05:55:18;5.67;;;3.80;;
5026;SDS011;2532;52.480;13.354;2023-08-17T05:57:45;16.10;;;4.30;;
5026;SDS011;2532;52.480;13.354;2023-08-17T06:00:12;7.57;;;3.90;;
5026;SDS011;2532;52.480;13.354;2023-08-17T06:02:42;6.30;;;3.80;;
5026;SDS011;2532;52.480;13.354;2023-08-17T06:05:08;7.77;;;4.60;;
5026;SDS011;2532;52.480;13.354;2023-08-17T06:07:36;8.60;;;4.70;;
5026;SDS011;2532;52.480;13.354;2023-08-17T06:10:03;6.40;;;4.23;;
5026;SDS011;2532;52.480;13.354;2023-08-17T06:12:31;10.93;;;4.50;;
5026;SDS011;2532;52.480;13.354;2023-08-17T06:14:58;13.60;;;4.37;;
5026;SDS011;2532;52.480;13.354;2023-08-17T06:17:25;27.37;;;10.80;;
5026;SDS011;2532;52.480;13.354;2023-08-17T06:19:53;24.40;;;11.70;;
5026;SDS011;2532;52.480;13.354;2023-08-17T06:22:20;8.23;;;5.23;;
5026;SDS011;2532;52.480;13.354;2023-08-17T06:24:47;8.97;;;4.23;;
5026;SDS011;2532;52.480;13.354;2023-08-17T06:27:14;5.30;;;3.83;;
5026;SDS011;2532;52.480;13.354;2023-08-17T06:29:41;7.77;;;4.20;;
5026;SDS011;2532;52.480;13.354;2023-08-17T06:32:09;6.70;;;4.13;;
5026;SDS011;2532;52.480;13.354;2023-08-17T06:34:35;7.53;;;4.33;;
5026;SDS011;2532;52.480;13.354;2023-08-17T06:37:04;4.90;;;3.70;;
5026;SDS011;2532;52.480;13.354;2023-08-17T06:39:31;5.77;;;3.47;;
5026;SDS011;2532;52.480;13.354;2023-08-17T06:41:58;7.37;;;4.00;;
5026;SDS011;2532;52.480;13.354;2023-08-17T06:44:25;6.50;;;4.40;;
5026;SDS011;2532;52.480;13.354;2023-08-17T06:46:52;6.13;;;4.20;;
5026;SDS011;2532;52.480;13.354;2023-08-17T06:49:18;5.80;;;3.77;;
5026;SDS011;2532;52.480;13.354;2023-08-17T06:51:45;10.70;;;5.10;;
5026;SDS011;2532;52.480;13.354;2023-08-17T06:54:14;6.07;;;4.47;;
5026;SDS011;2532;52.480;13.354;2023-08-17T06:56:41;8.17;;;4.30;;
5026;SDS011;2532;52.480;13.354;2023-08-17T06:59:07;7.17;;;4.70;;
5026;SDS011;2532;52.480;13.354;2023-08-17T07:01:34;6.47;;;5.00;;
5026;SDS011;2532;52.480;13.354;2023-08-17T07:04:01;7.37;;;4.10;;
5026;SDS011;2532;52.480;13.354;2023-08-17T07:06:29;9.40;;;4.60;;
5026;SDS011;2532;52.480;13.354;2023-08-17T07:08:56;11.17;;;4.70;;
5026;SDS011;2532;52.480;13.354;2023-08-17T07:11:24;6.67;;;4.40;;
5026;SDS011;2532;52.480;13.354;2023-08-17T07:13:51;10.60;;;4.77;;
5026;SDS011;2532;52.480;13.354;2023-08-17T07:16:18;7.13;;;3.77;;
5026;SDS011;2532;52.480;13.354;2023-08-17T07:18:45;5.33;;;3.80;;
5026;SDS011;2532;52.480;13.354;2023-08-17T07:21:12;4.37;;;3.83;;
5026;SDS011;2532;52.480;13.354;2023-08-17T07:23:39;7.57;;;4.30;;
5026;SDS011;2532;52.480;13.354;2023-08-17T07:26:11;7.13;;;4.50;;
5026;SDS011;2532;52.480;13.354;2023-08-17T07:28:39;5.80;;;4.07;;
5026;SDS011;2532;52.480;13.354;2023-08-17T07:31:06;9.10;;;4.57;;
5026;SDS011;2532;52.480;13.354;2023-08-17T07:33:33;10.10;;;3.90;;
5026;SDS011;2532;52.480;13.354;2023-08-17T07:36:00;6.87;;;4.57;;
5026;SDS011;2532;52.480;13.354;2023-08-17T07:38:27;9.43;;;4.93;;
5026;SDS011;2532;52.480;13.354;2023-08-17T07:40:54;8.70;;;4.87;;
5026;SDS011;2532;52.480;13.354;2023-08-17T07:43:21;4.57;;;4.10;;
5026;SDS011;2532;52.480;13.354;2023-08-17T07:45:53;7.10;;;4.80;;
5026;SDS011;2532;52.480;13.354;2023-08-17T07:48:20;5.00;;;3.90;;
5026;SDS011;2532;52.480;13.354;2023-08-17T07:50:48;7.60;;;4.17;;
5026;SDS011;2532;52.480;13.354;2023-08-17T07:53:15;18.10;;;8.97;;
5026;SDS011;2532;52.480;13.354;2023-08-17T07:55:42;8.20;;;4.40;;
5026;SDS011;2532;52.480;13.354;2023-08-17T07:58:09;9.97;;;5.27;;
5026;SDS011;2532;52.480;13.354;2023-08-17T08:00:36;6.10;;;4.60;;
5026;SDS011;2532;52.480;13.354;2023-08-17T08:03:05;5.90;;;4.47;;
5026;SDS011;2532;52.480;13.354;2023-08-17T08:05:32;6.77;;;4.50;;
5026;SDS011;2532;52.480;13.354;2023-08-17T08:07:59;10.27;;;4.40;;
5026;SDS011;2532;52.480;13.354;2023-08-17T08:10:26;7.73;;;5.03;;
5026;SDS011;2532;52.480;13.354;2023-08-17T08:12:53;10.10;;;4.37;;
5026;SDS011;2532;52.480;13.354;2023-08-17T08:15:20;5.10;;;3.90;;
5026;SDS011;2532;52.480;13.354;2023-08-17T08:17:47;8.70;;;3.90;;
5026;SDS011;2532;52.480;13.354;2023-08-17T08:20:16;5.53;;;4.33;;
5026;SDS011;2532;52.480;13.354;2023-08-17T08:22:42;10.20;;;4.50;;
5026;SDS011;2532;52.480;13.354;2023-08-17T08:25:10;7.60;;;3.97;;
5026;SDS011;2532;52.480;13.354;2023-08-17T08:27:37;5.70;;;4.23;;
5026;SDS011;2532;52.480;13.354;2023-08-17T08:30:04;7.70;;;4.23;;
5026;SDS011;2532;52.480;13.354;2023-08-17T08:32:32;8.77;;;4.10;;
5026;SDS011;2532;52.480;13.354;2023-08-17T08:34:59;15.60;;;4.67;;
5026;SDS011;2532;52.480;13.354;2023-08-17T08:37:27;11.40;;;7.80;;
5026;SDS011;2532;52.480;13.354;2023-08-17T08:39:54;9.00;;;6.30;;
5026;SDS011;2532;52.480;13.354;2023-08-17T08:42:22;5.23;;;4.33;;
5026;SDS011;2532;52.480;13.354;2023-08-17T08:44:49;7.43;;;4.73;;
5026;SDS011;2532;52.480;13.354;2023-08-17T08:47:17;5.93;;;5.37;;
5026;SDS011;2532;52.480;13.354;2023-08-17T08:49:46;8.40;;;4.83;;
5026;SDS011;2532;52.480;13.354;2023-08-17T08:52:18;9.73;;;4.93;;
5026;SDS011;2532;52.480;13.354;2023-08-17T08:54:50;5.70;;;4.60;;
5026;SDS011;2532;52.480;13.354;2023-08-17T08:57:18;6.87;;;4.63;;
5026;SDS011;2532;52.480;13.354;2023-08-17T08:59:46;5.83;;;5.23;;
5026;SDS011;2532;52.480;13.354;2023-08-17T09:02:14;7.63;;;4.73;;
5026;SDS011;2532;52.480;13.354;2023-08-17T09:04:42;7.10;;;5.57;;
5026;SDS011;2532;52.480;13.354;2023-08-17T09:07:10;8.30;;;5.20;;
5026;SDS011;2532;52.480;13.354;2023-08-17T09:09:38;11.33;;;5.17;;
5026;SDS011;2532;52.480;13.354;2023-08-17T09:12:07;6.33;;;5.67;;
5026;SDS011;2532;52.480;13.354;2023-08-17T09:14:35;7.67;;;5.47;;
5026;SDS011;2532;52.480;13.354;2023-08-17T09:17:02;6.77;;;5.30;;
5026;SDS011;2532;52.480;13.354;2023-08-17T09:19:31;8.80;;;5.67;;
5026;SDS011;2532;52.480;13.354;2023-08-17T09:21:58;6.50;;;4.97;;
5026;SDS011;2532;52.480;13.354;2023-08-17T09:24:33;10.80;;;6.53;;
5026;SDS011;2532;52.480;13.354;2023-08-17T09:27:00;7.90;;;5.30;;
5026;SDS011;2532;52.480;13.354;2023-08-17T09:29:28;9.53;;;4.87;;
5026;SDS011;2532;52.480;13.354;2023-08-17T09:31:58;9.37;;;5.27;;
5026;SDS011;2532;52.480;13.354;2023-08-17T09:34:30;8.07;;;4.83;;
5026;SDS011;2532;52.480;13.354;2023-08-17T09:37:01;6.73;;;4.87;;
5026;SDS011;2532;52.480;13.354;2023-08-17T09:39:29;10.90;;;6.80;;
5026;SDS011;2532;52.480;13.354;2023-08-17T09:41:56;9.10;;;6.10;;
5026;SDS011;2532;52.480;13.354;2023-08-17T09:44:23;6.03;;;5.10;;
5026;SDS011;2532;52.480;13.354;2023-08-17T09:46:51;6.93;;;5.10;;
5026;SDS011;2532;52.480;13.354;2023-08-17T09:49:22;8.90;;;5.27;;
5026;SDS011;2532;52.480;13.354;2023-08-17T09:51:49;7.67;;;5.20;;
5026;SDS011;2532;52.480;13.354;2023-08-17T09:54:20;14.03;;;9.20;;
5026;SDS011;2532;52.480;13.354;2023-08-17T09:56:49;9.20;;;5.30;;
5026;SDS011;2532;52.480;13.354;2023-08-17T09:59:17;5.30;;;4.73;;
5026;SDS011;2532;52.480;13.354;2023-08-17T10:01:44;6.03;;;5.10;;
5026;SDS011;2532;52.480;13.354;2023-08-17T10:04:17;6.77;;;4.77;;
5026;SDS011;2532;52.480;13.354;2023-08-17T10:06:48;7.03;;;5.57;;
5026;SDS011;2532;52.480;13.354;2023-08-17T10:09:23;8.03;;;4.80;;
5026;SDS011;2532;52.480;13.354;2023-08-17T10:11:51;11.60;;;8.30;;
5026;SDS011;2532;52.480;13.354;2023-08-17T10:14:21;6.60;;;5.50;;
5026;SDS011;2532;52.480;13.354;2023-08-17T10:16:53;10.00;;;6.43;;
5026;SDS011;2532;52.480;13.354;2023-08-17T10:19:30;8.00;;;5.70;;
5026;SDS011;2532;52.480;13.354;2023-08-17T10:22:06;12.50;;;8.40;;
5026;SDS011;2532;52.480;13.354;2023-08-17T10:24:35;8.77;;;6.67;;
5026;SDS011;2532;52.480;13.354;2023-08-17T10:27:04;6.50;;;5.00;;
5026;SDS011;2532;52.480;13.354;2023-08-17T10:29:32;8.67;;;5.13;;
5026;SDS011;2532;52.480;13.354;2023-08-17T10:32:00;9.60;;;5.60;;
5026;SDS011;2532;52.480;13.354;2023-08-17T10:34:29;6.00;;;5.33;;
5026;SDS011;2532;52.480;13.354;2023-08-17T10:36:56;8.53;;;5.40;;
5026;SDS011;2532;52.480;13.354;2023-08-17T10:39:25;14.83;;;5.30;;
5026;SDS011;2532;52.480;13.354;2023-08-17T10:41:53;7.47;;;5.07;;
5026;SDS011;2532;52.480;13.354;2023-08-17T10:47:22;10.70;;;5.30;;
5026;SDS011;2532;52.480;13.354;2023-08-17T10:49:52;6.50;;;5.10;;
5026;SDS011;2532;52.480;13.354;2023-08-17T10:52:26;10.37;;;6.17;;
5026;SDS011;2532;52.480;13.354;2023-08-17T10:54:55;7.90;;;5.37;;
5026;SDS011;2532;52.480;13.354;2023-08-17T10:57:28;8.30;;;5.73;;
5026;SDS011;2532;52.480;13.354;2023-08-17T11:00:16;13.03;;;6.30;;
5026;SDS011;2532;52.480;13.354;2023-08-17T11:02:53;5.87;;;5.00;;
5026;SDS011;2532;52.480;13.354;2023-08-17T11:05:38;8.70;;;6.47;;
5026;SDS011;2532;52.480;13.354;2023-08-17T11:08:08;8.10;;;6.17;;
5026;SDS011;2532;52.480;13.354;2023-08-17T11:10:36;12.03;;;6.43;;
5026;SDS011;2532;52.480;13.354;2023-08-17T11:13:04;8.93;;;6.20;;
5026;SDS011;2532;52.480;13.354;2023-08-17T11:15:36;7.40;;;5.53;;
5026;SDS011;2532;52.480;13.354;2023-08-17T11:18:04;7.43;;;6.20;;
5026;SDS011;2532;52.480;13.354;2023-08-17T11:20:32;6.87;;;5.33;;
5026;SDS011;2532;52.480;13.354;2023-08-17T11:23:02;12.40;;;6.50;;
5026;SDS011;2532;52.480;13.354;2023-08-17T11:25:30;7.30;;;6.57;;
5026;SDS011;2532;52.480;13.354;2023-08-17T11:27:59;6.67;;;5.60;;
5026;SDS011;2532;52.480;13.354;2023-08-17T11:30:27;6.50;;;5.40;;
5026;SDS011;2532;52.480;13.354;2023-08-17T11:32:54;10.73;;;6.67;;
5026;SDS011;2532;52.480;13.354;2023-08-17T11:35:22;10.00;;;6.40;;
5026;SDS011;2532;52.480;13.354;2023-08-17T11:37:49;12.90;;;5.80;;
5026;SDS011;2532;52.480;13.354;2023-08-17T11:40:17;7.47;;;5.93;;
5026;SDS011;2532;52.480;13.354;2023-08-17T11:42:44;6.77;;;5.40;;
5026;SDS011;2532;52.480;13.354;2023-08-17T11:45:12;7.57;;;5.60;;
5026;SDS011;2532;52.480;13.354;2023-08-17T11:47:40;7.13;;;5.57;;
5026;SDS011;2532;52.480;13.354;2023-08-17T11:50:09;8.93;;;6.27;;
5026;SDS011;2532;52.480;13.354;2023-08-17T11:52:37;10.30;;;6.20;;
5026;SDS011;2532;52.480;13.354;2023-08-17T11:55:04;9.63;;;8.20;;
5026;SDS011;2532;52.480;13.354;2023-08-17T11:57:33;6.40;;;5.80;;
5026;SDS011;2532;52.480;13.354;2023-08-17T12:00:01;6.80;;;5.23;;
5026;SDS011;2532;52.480;13.354;2023-08-17T12:02:31;12.80;;;6.67;;
5026;SDS011;2532;52.480;13.354;2023-08-17T12:05:03;8.17;;;5.70;;
5026;SDS011;2532;52.480;13.354;2023-08-17T12:07:32;13.00;;;5.87;;
5026;SDS011;2532;52.480;13.354;2023-08-17T12:09:58;8.50;;;6.97;;
5026;SDS011;2532;52.480;13.354;2023-08-17T12:12:25;7.33;;;5.37;;
5026;SDS011;2532;52.480;13.354;2023-08-17T12:14:56;7.30;;;6.43;;
5026;SDS011;2532;52.480;13.354;2023-08-17T12:17:24;7.60;;;5.00;;
5026;SDS011;2532;52.480;13.354;2023-08-17T12:19:54;8.87;;;6.50;;
5026;SDS011;2532;52.480;13.354;2023-08-17T12:22:23;8.53;;;5.50;;
5026;SDS011;2532;52.480;13.354;2023-08-17T12:24:51;7.40;;;6.33;;
5026;SDS011;2532;52.480;13.354;2023-08-17T12:27:18;11.53;;;6.23;;
5026;SDS011;2532;52.480;13.354;2023-08-17T12:29:45;7.83;;;6.67;;
5026;SDS011;2532;52.480;13.354;2023-08-17T12:32:15;14.20;;;9.10;;
5026;SDS011;2532;52.480;13.354;2023-08-17T12:34:43;9.67;;;6.60;;
5026;SDS011;2532;52.480;13.354;2023-08-17T12:37:10;7.83;;;6.20;;
5026;SDS011;2532;52.480;13.354;2023-08-17T12:39:37;9.80;;;6.20;;
5026;SDS011;2532;52.480;13.354;2023-08-17T12:42:04;9.03;;;7.23;;
5026;SDS011;2532;52.480;13.354;2023-08-17T12:44:32;10.00;;;6.30;;
5026;SDS011;2532;52.480;13.354;2023-08-17T12:46:59;7.80;;;7.00;;
5026;SDS011;2532;52.480;13.354;2023-08-17T12:49:27;10.40;;;7.43;;
5026;SDS011;2532;52.480;13.354;2023-08-17T12:51:54;8.60;;;7.03;;
5026;SDS011;2532;52.480;13.354;2023-08-17T12:54:21;9.20;;;7.10;;
5026;SDS011;2532;52.480;13.354;2023-08-17T12:56:48;9.40;;;7.33;;
5026;SDS011;2532;52.480;13.354;2023-08-17T12:59:15;8.87;;;6.90;;
5026;SDS011;2532;52.480;13.354;2023-08-17T13:01:41;10.20;;;7.87;;
5026;SDS011;2532;52.480;13.354;2023-08-17T13:04:08;11.50;;;9.07;;
5026;SDS011;2532;52.480;13.354;2023-08-17T13:06:37;9.80;;;7.87;;
5026;SDS011;2532;52.480;13.354;2023-08-17T13:09:04;9.60;;;7.40;;
5026;SDS011;2532;52.480;13.354;2023-08-17T13:11:31;9.20;;;6.00;;
5026;SDS011;2532;52.480;13.354;2023-08-17T13:13:58;8.10;;;6.33;;
5026;SDS011;2532;52.480;13.354;2023-08-17T13:16:25;10.80;;;8.47;;
5026;SDS011;2532;52.480;13.354;2023-08-17T13:18:52;10.23;;;7.00;;
5026;SDS011;2532;52.480;13.354;2023-08-17T13:21:19;7.80;;;6.50;;
5026;SDS011;2532;52.480;13.354;2023-08-17T13:23:47;9.33;;;6.33;;
5026;SDS011;2532;52.480;13.354;2023-08-17T13:26:14;7.23;;;6.33;;
5026;SDS011;2532;52.480;13.354;2023-08-17T13:28:41;9.77;;;8.73;;
5026;SDS011;2532;52.480;13.354;2023-08-17T13:31:07;8.23;;;7.43;;
5026;SDS011;2532;52.480;13.354;2023-08-17T13:33:34;7.83;;;7.00;;
5026;SDS011;2532;52.480;13.354;2023-08-17T13:36:01;8.03;;;7.23;;
5026;SDS011;2532;52.480;13.354;2023-08-17T13:38:28;8.07;;;7.27;;
5026;SDS011;2532;52.480;13.354;2023-08-17T13:40:57;9.43;;;7.77;;
5026;SDS011;2532;52.480;13.354;2023-08-17T13:43:24;13.70;;;6.20;;
5026;SDS011;2532;52.480;13.354;2023-08-17T13:45:51;6.90;;;6.30;;
5026;SDS011;2532;52.480;13.354;2023-08-17T13:48:18;7.30;;;5.60;;
5026;SDS011;2532;52.480;13.354;2023-08-17T13:50:45;7.77;;;6.97;;
5026;SDS011;2532;52.480;13.354;2023-08-17T13:53:12;7.77;;;6.93;;
5026;SDS011;2532;52.480;13.354;2023-08-17T13:55:39;9.20;;;8.07;;
5026;SDS011;2532;52.480;13.354;2023-08-17T13:58:07;8.90;;;7.17;;
5026;SDS011;2532;52.480;13.354;2023-08-17T14:00:35;8.10;;;6.60;;
5026;SDS011;2532;52.480;13.354;2023-08-17T14:03:02;8.17;;;7.03;;
5026;SDS011;2532;52.480;13.354;2023-08-17T14:05:31;7.97;;;7.17;;
5026;SDS011;2532;52.480;13.354;2023-08-17T14:07:58;11.17;;;7.63;;
5026;SDS011;2532;52.480;13.354;2023-08-17T14:10:25;10.97;;;7.77;;
5026;SDS011;2532;52.480;13.354;2023-08-17T14:12:52;14.80;;;11.20;;
5026;SDS011;2532;52.480;13.354;2023-08-17T14:15:20;8.13;;;6.93;;
5026;SDS011;2532;52.480;13.354;2023-08-17T14:17:47;7.93;;;7.13;;
5026;SDS011;2532;52.480;13.354;2023-08-17T14:20:14;10.17;;;6.90;;
5026;SDS011;2532;52.480;13.354;2023-08-17T14:22:41;7.60;;;6.60;;
5026;SDS011;2532;52.480;13.354;2023-08-17T14:25:08;9.03;;;6.80;;
5026;SDS011;2532;52.480;13.354;2023-08-17T14:27:35;10.33;;;8.57;;
5026;SDS011;2532;52.480;13.354;2023-08-17T14:30:02;7.23;;;6.53;;
5026;SDS011;2532;52.480;13.354;2023-08-17T14:32:31;9.50;;;6.53;;
5026;SDS011;2532;52.480;13.354;2023-08-17T14:34:57;9.63;;;7.40;;
5026;SDS011;2532;52.480;13.354;2023-08-17T14:37:24;7.63;;;6.40;;
5026;SDS011;2532;52.480;13.354;2023-08-17T14:39:51;10.37;;;7.60;;
5026;SDS011;2532;52.480;13.354;2023-08-17T14:42:18;11.90;;;6.60;;
5026;SDS011;2532;52.480;13.354;2023-08-17T14:44:45;10.83;;;7.10;;
5026;SDS011;2532;52.480;13.354;2023-08-17T14:47:12;8.67;;;7.13;;
5026;SDS011;2532;52.480;13.354;2023-08-17T14:49:40;10.23;;;7.10;;
5026;SDS011;2532;52.480;13.354;2023-08-17T14:52:07;7.90;;;7.10;;
5026;SDS011;2532;52.480;13.354;2023-08-17T14:54:34;9.30;;;7.00;;
5026;SDS011;2532;52.480;13.354;2023-08-17T14:57:01;7.43;;;6.30;;
5026;SDS011;2532;52.480;13.354;2023-08-17T14:59:28;7.10;;;6.30;;
5026;SDS011;2532;52.480;13.354;2023-08-17T15:01:55;7.63;;;6.80;;
5026;SDS011;2532;52.480;13.354;2023-08-17T15:04:22;6.80;;;6.10;;
5026;SDS011;2532;52.480;13.354;2023-08-17T15:06:50;6.70;;;5.80;;
5026;SDS011;2532;52.480;13.354;2023-08-17T15:09:17;6.80;;;6.10;;
5026;SDS011;2532;52.480;13.354;2023-08-17T15:11:44;8.97;;;7.20;;
5026;SDS011;2532;52.480;13.354;2023-08-17T15:14:11;6.60;;;5.97;;
5026;SDS011;2532;52.480;13.354;2023-08-17T15:16:38;8.40;;;5.40;;
5026;SDS011;2532;52.480;13.354;2023-08-17T15:19:05;8.80;;;6.33;;
5026;SDS011;2532;52.480;13.354;2023-08-17T15:21:32;8.83;;;6.60;;
5026;SDS011;2532;52.480;13.354;2023-08-17T15:24:01;8.40;;;6.53;;
5026;SDS011;2532;52.480;13.354;2023-08-17T15:26:28;7.40;;;5.70;;
5026;SDS011;2532;52.480;13.354;2023-08-17T15:28:54;7.80;;;7.00;;
5026;SDS011;2532;52.480;13.354;2023-08-17T15:31:21;8.43;;;6.77;;
5026;SDS011;2532;52.480;13.354;2023-08-17T15:33:48;12.03;;;6.33;;
5026;SDS011;2532;52.480;13.354;2023-08-17T15:36:15;6.30;;;5.70;;
5026;SDS011;2532;52.480;13.354;2023-08-17T15:38:46;12.13;;;8.43;;
5026;SDS011;2532;52.480;13.354;2023-08-17T15:41:15;8.60;;;6.17;;
5026;SDS011;2532;52.480;13.354;2023-08-17T15:43:42;7.87;;;6.77;;
5026;SDS011;2532;52.480;13.354;2023-08-17T15:46:09;10.37;;;6.03;;
5026;SDS011;2532;52.480;13.354;2023-08-17T15:48:38;9.80;;;5.97;;
5026;SDS011;2532;52.480;13.354;2023-08-17T15:51:05;7.53;;;6.73;;
5026;SDS011;2532;52.480;13.354;2023-08-17T15:53:32;6.87;;;6.27;;
5026;SDS011;2532;52.480;13.354;2023-08-17T15:55:59;6.73;;;5.30;;
5026;SDS011;2532;52.480;13.354;2023-08-17T15:58:27;7.67;;;5.80;;
5026;SDS011;2532;52.480;13.354;2023-08-17T16:00:54;6.50;;;5.40;;
5026;SDS011;2532;52.480;13.354;2023-08-17T16:03:21;9.67;;;6.00;;
5026;SDS011;2532;52.480;13.354;2023-08-17T16:05:48;7.70;;;6.13;;
5026;SDS011;2532;52.480;13.354;2023-08-17T16:08:15;13.23;;;8.57;;
5026;SDS011;2532;52.480;13.354;2023-08-17T16:10:42;10.80;;;7.50;;
5026;SDS011;2532;52.480;13.354;2023-08-17T16:13:09;6.73;;;6.13;;
5026;SDS011;2532;52.480;13.354;2023-08-17T16:15:37;7.10;;;6.37;;
5026;SDS011;2532;52.480;13.354;2023-08-17T16:18:04;7.30;;;5.97;;
5026;SDS011;2532;52.480;13.354;2023-08-17T16:20:31;6.43;;;5.60;;
5026;SDS011;2532;52.480;13.354;2023-08-17T16:22:58;9.07;;;5.30;;
5026;SDS011;2532;52.480;13.354;2023-08-17T16:25:25;8.27;;;6.20;;
5026;SDS011;2532;52.480;13.354;2023-08-17T16:27:53;6.20;;;5.60;;
5026;SDS011;2532;52.480;13.354;2023-08-17T16:30:20;13.90;;;7.77;;
5026;SDS011;2532;52.480;13.354;2023-08-17T16:32:48;8.00;;;5.70;;
5026;SDS011;2532;52.480;13.354;2023-08-17T16:35:15;6.83;;;5.93;;
5026;SDS011;2532;52.480;13.354;2023-08-17T16:37:42;6.30;;;5.37;;
5026;SDS011;2532;52.480;13.354;2023-08-17T16:40:09;10.83;;;6.93;;
5026;SDS011;2532;52.480;13.354;2023-08-17T16:42:36;9.03;;;5.73;;
5026;SDS011;2532;52.480;13.354;2023-08-17T16:45:04;6.70;;;6.00;;
5026;SDS011;2532;52.480;13.354;2023-08-17T16:47:31;8.77;;;6.00;;
5026;SDS011;2532;52.480;13.354;2023-08-17T16:49:59;7.50;;;5.47;;
5026;SDS011;2532;52.480;13.354;2023-08-17T16:52:27;6.73;;;5.20;;
5026;SDS011;2532;52.480;13.354;2023-08-17T16:54:53;6.00;;;5.27;;
5026;SDS011;2532;52.480;13.354;2023-08-17T16:57:20;6.73;;;6.10;;
5026;SDS011;2532;52.480;13.354;2023-08-17T16:59:47;6.93;;;6.30;;
5026;SDS011;2532;52.480;13.354;2023-08-17T17:02:14;7.60;;;6.33;;
5026;SDS011;2532;52.480;13.354;2023-08-17T17:04:41;7.40;;;5.90;;
5026;SDS011;2532;52.480;13.354;2023-08-17T17:07:10;11.53;;;7.03;;
5026;SDS011;2532;52.480;13.354;2023-08-17T17:09:37;7.70;;;5.70;;
5026;SDS011;2532;52.480;13.354;2023-08-17T17:12:04;7.60;;;6.00;;
5026;SDS011;2532;52.480;13.354;2023-08-17T17:14:31;6.60;;;5.90;;
5026;SDS011;2532;52.480;13.354;2023-08-17T17:16:58;9.93;;;6.30;;
5026;SDS011;2532;52.480;13.354;2023-08-17T17:19:25;7.40;;;6.07;;
5026;SDS011;2532;52.480;13.354;2023-08-17T17:21:52;8.57;;;7.10;;
5026;SDS011;2532;52.480;13.354;2023-08-17T17:24:20;6.70;;;6.10;;
5026;SDS011;2532;52.480;13.354;2023-08-17T17:26:47;6.93;;;6.20;;
5026;SDS011;2532;52.480;13.354;2023-08-17T17:29:14;7.77;;;5.70;;
5026;SDS011;2532;52.480;13.354;2023-08-17T17:31:41;9.47;;;6.60;;
5026;SDS011;2532;52.480;13.354;2023-08-17T17:34:08;8.33;;;6.00;;
5026;SDS011;2532;52.480;13.354;2023-08-17T17:36:35;7.60;;;6.07;;
5026;SDS011;2532;52.480;13.354;2023-08-17T17:39:02;9.07;;;6.43;;
5026;SDS011;2532;52.480;13.354;2023-08-17T17:41:30;6.73;;;5.97;;
5026;SDS011;2532;52.480;13.354;2023-08-17T17:43:57;7.30;;;6.00;;
5026;SDS011;2532;52.480;13.354;2023-08-17T17:46:24;7.10;;;5.90;;
5026;SDS011;2532;52.480;13.354;2023-08-17T17:48:51;6.43;;;5.83;;
5026;SDS011;2532;52.480;13.354;2023-08-17T17:51:19;9.43;;;6.43;;
5026;SDS011;2532;52.480;13.354;2023-08-17T17:53:46;6.50;;;5.80;;
5026;SDS011;2532;52.480;13.354;2023-08-17T17:56:13;6.60;;;5.90;;
5026;SDS011;2532;52.480;13.354;2023-08-17T17:58:41;7.03;;;6.33;;
5026;SDS011;2532;52.480;13.354;2023-08-17T18:01:08;8.53;;;6.23;;
5026;SDS011;2532;52.480;13.354;2023-08-17T18:03:35;7.43;;;6.00;;
5026;SDS011;2532;52.480;13.354;2023-08-17T18:06:02;8.83;;;6.10;;
5026;SDS011;2532;52.480;13.354;2023-08-17T18:08:29;9.43;;;6.00;;
5026;SDS011;2532;52.480;13.354;2023-08-17T18:10:57;8.87;;;6.20;;
5026;SDS011;2532;52.480;13.354;2023-08-17T18:13:24;10.23;;;6.10;;
5026;SDS011;2532;52.480;13.354;2023-08-17T18:15:53;6.27;;;5.57;;
5026;SDS011;2532;52.480;13.354;2023-08-17T18:18:20;9.30;;;6.40;;
5026;SDS011;2532;52.480;13.354;2023-08-17T18:20:46;9.10;;;7.07;;
5026;SDS011;2532;52.480;13.354;2023-08-17T18:23:13;10.60;;;6.40;;
5026;SDS011;2532;52.480;13.354;2023-08-17T18:25:41;7.50;;;6.47;;
5026;SDS011;2532;52.480;13.354;2023-08-17T18:28:11;6.93;;;5.97;;
5026;SDS011;2532;52.480;13.354;2023-08-17T18:30:38;7.17;;;6.23;;
5026;SDS011;2532;52.480;13.354;2023-08-17T18:33:06;8.33;;;6.83;;
5026;SDS011;2532;52.480;13.354;2023-08-17T18:35:33;9.03;;;6.40;;
5026;SDS011;2532;52.480;13.354;2023-08-17T18:38:00;12.90;;;6.97;;
5026;SDS011;2532;52.480;13.354;2023-08-17T18:40:27;8.67;;;6.83;;
5026;SDS011;2532;52.480;13.354;2023-08-17T18:42:54;7.40;;;5.80;;
5026;SDS011;2532;52.480;13.354;2023-08-17T18:45:21;7.30;;;6.60;;
5026;SDS011;2532;52.480;13.354;2023-08-17T18:47:48;7.23;;;6.53;;
5026;SDS011;2532;52.480;13.354;2023-08-17T18:50:16;7.40;;;5.97;;
5026;SDS011;2532;52.480;13.354;2023-08-17T18:52:43;8.03;;;5.93;;
5026;SDS011;2532;52.480;13.354;2023-08-17T18:55:11;7.10;;;6.40;;
5026;SDS011;2532;52.480;13.354;2023-08-17T18:57:39;8.77;;;5.90;;
5026;SDS011;2532;52.480;13.354;2023-08-17T19:00:07;7.50;;;5.83;;
5026;SDS011;2532;52.480;13.354;2023-08-17T19:02:36;5.93;;;5.03;;
5026;SDS011;2532;52.480;13.354;2023-08-17T19:05:04;7.53;;;5.70;;